Corky — WDC3366 — position and weather

sailwx.info

Track history (hours):
 
Tides and Currents Weather Stations Pressure Air Temp Water Temp Dewpoint Dewpoint Depression Visibility Wind Speed Wind Dir Waves Ship Positions

Corky

Owner: Gulf South Marine Transportation, Inc., New Orleans, LA. More information available from US FCC via Universal Licensing System and Coast Guard Vessel Documentation Center.

Last reported at 2014-Nov-25 04:33 UTC. Time now 2014-Nov-26 21:33 UTC.
Position N 30°00' W 089°56'.

Length 18 m; draft 3.3 m.

Type: Tow > 200 m length. MMSI: 367006780.

Date/timePositionNaut miles runAvg speedWind from/ knotsBaromVisibWave heightAir tempDewpointWater temp
2014-Nov-25 04:33N 30°00' W 089°56'4 4.4
2014-Nov-25 03:33N 29°60' W 090°01'0 0.1
2014-Nov-25 02:24N 29°60' W 090°01'1 0.7
2014-Nov-25 01:18N 29°59' W 090°01'7 0.3
2014-Nov-23 22:33N 29°56' W 090°08'4 4.1
2014-Nov-23 21:31N 29°57' W 090°04'3 2.6
2014-Nov-23 20:33N 29°57' W 090°01'2 1.4
2014-Nov-23 19:25N 29°58' W 090°02'3 3.3
2014-Nov-23 18:28N 29°60' W 089°59'  
2014-Nov-20 11:29N 29°60' W 090°00'0 0.0
2014-Nov-20 10:32N 29°60' W 090°00'2 2.0
2014-Nov-20 09:24N 29°58' W 090°02'1 0.8
2014-Nov-20 08:33N 29°57' W 090°02'0 0.4
2014-Nov-20 07:31N 29°57' W 090°02'0 0.0
2014-Nov-20 06:30N 29°57' W 090°02'0 0.0
2014-Nov-20 05:33N 29°57' W 090°02'0 0.0
2014-Nov-20 04:32N 29°57' W 090°02'0 0.0
2014-Nov-20 03:33N 29°57' W 090°02'0 0.0
2014-Nov-20 02:28N 29°57' W 090°02'0 0.0
2014-Nov-20 01:33N 29°57' W 090°02'0 0.0
2014-Nov-20 00:33N 29°57' W 090°02'0 0.0
2014-Nov-19 23:34N 29°57' W 090°02'0 0.0
2014-Nov-19 22:33N 29°57' W 090°02'0 0.0
2014-Nov-19 21:33N 29°57' W 090°02'0 0.0
2014-Nov-19 20:33N 29°57' W 090°02'0 0.0
2014-Nov-19 19:28N 29°57' W 090°02'0 0.0
2014-Nov-19 18:18N 29°57' W 090°02'0 0.0
2014-Nov-19 05:22N 29°57' W 090°02'0 0.0
2014-Nov-18 23:32N 29°57' W 090°02'0 0.0
2014-Nov-18 22:30N 29°57' W 090°02'0 0.0
2014-Nov-18 21:26N 29°57' W 090°02'6 0.2
2014-Nov-17 12:06N 29°55' W 090°08'  
Track history (hours):
 
Tides and Currents Weather Stations Pressure Air Temp Water Temp Dewpoint Dewpoint Depression Visibility Wind Speed Wind Dir Waves Ship Positions

Corky

Owner: Gulf South Marine Transportation, Inc., New Orleans, LA. More information available from US FCC via Universal Licensing System and Coast Guard Vessel Documentation Center.

Last reported at 2014-Nov-25 04:33 UTC. Time now 2014-Nov-26 21:33 UTC.
Position N 30°00' W 089°56'.

Length 18 m; draft 3.3 m.

Type: Tow > 200 m length. MMSI: 367006780.

Date/timePositionNaut miles runAvg speedWind from/ knotsBaromVisibWave heightAir tempDewpointWater temp
2014-Nov-25 04:33N 30°00' W 089°56'4 4.4
2014-Nov-25 03:33N 29°60' W 090°01'0 0.1
2014-Nov-25 02:24N 29°60' W 090°01'1 0.7
2014-Nov-25 01:18N 29°59' W 090°01'7 0.3
2014-Nov-23 22:33N 29°56' W 090°08'4 4.1
2014-Nov-23 21:31N 29°57' W 090°04'3 2.6
2014-Nov-23 20:33N 29°57' W 090°01'2 1.4
2014-Nov-23 19:25N 29°58' W 090°02'3 3.3
2014-Nov-23 18:28N 29°60' W 089°59'  
2014-Nov-20 11:29N 29°60' W 090°00'0 0.0
2014-Nov-20 10:32N 29°60' W 090°00'2 2.0
2014-Nov-20 09:24N 29°58' W 090°02'1 0.8
2014-Nov-20 08:33N 29°57' W 090°02'0 0.4
2014-Nov-20 07:31N 29°57' W 090°02'0 0.0
2014-Nov-20 06:30N 29°57' W 090°02'0 0.0
2014-Nov-20 05:33N 29°57' W 090°02'0 0.0
2014-Nov-20 04:32N 29°57' W 090°02'0 0.0
2014-Nov-20 03:33N 29°57' W 090°02'0 0.0
2014-Nov-20 02:28N 29°57' W 090°02'0 0.0
2014-Nov-20 01:33N 29°57' W 090°02'0 0.0
2014-Nov-20 00:33N 29°57' W 090°02'0 0.0
2014-Nov-19 23:34N 29°57' W 090°02'0 0.0
2014-Nov-19 22:33N 29°57' W 090°02'0 0.0
2014-Nov-19 21:33N 29°57' W 090°02'0 0.0
2014-Nov-19 20:33N 29°57' W 090°02'0 0.0
2014-Nov-19 19:28N 29°57' W 090°02'0 0.0
2014-Nov-19 18:18N 29°57' W 090°02'0 0.0
2014-Nov-19 05:22N 29°57' W 090°02'0 0.0
2014-Nov-18 23:32N 29°57' W 090°02'0 0.0
2014-Nov-18 22:30N 29°57' W 090°02'0 0.0
2014-Nov-18 21:26N 29°57' W 090°02'6 0.2
2014-Nov-17 12:06N 29°55' W 090°08'  

Dump ship's entire track history